sensor_id;sensor_type;location;lat;lon;timestamp;temperature;humidity
20200;DHT22;36284;37.236;-121.934;2023-07-08T00:00:44;22.90;99.90
20200;DHT22;36284;37.236;-121.934;2023-07-08T00:03:14;23.40;99.90
20200;DHT22;36284;37.236;-121.934;2023-07-08T00:05:42;23.60;99.90
20200;DHT22;36284;37.236;-121.934;2023-07-08T00:08:13;23.60;99.90
20200;DHT22;36284;37.236;-121.934;2023-07-08T00:10:40;23.70;99.90
20200;DHT22;36284;37.236;-121.934;2023-07-08T00:13:09;23.40;99.90
20200;DHT22;36284;37.236;-121.934;2023-07-08T00:15:37;23.20;99.90
20200;DHT22;36284;37.236;-121.934;2023-07-08T00:18:15;23.20;99.90
20200;DHT22;36284;37.236;-121.934;2023-07-08T00:20:45;22.60;99.90
20200;DHT22;36284;37.236;-121.934;2023-07-08T00:23:12;22.20;99.90
20200;DHT22;36284;37.236;-121.934;2023-07-08T00:25:39;22.60;99.90
20200;DHT22;36284;37.236;-121.934;2023-07-08T00:28:14;22.50;99.90
20200;DHT22;36284;37.236;-121.934;2023-07-08T00:30:41;22.60;99.90
20200;DHT22;36284;37.236;-121.934;2023-07-08T00:33:08;22.50;99.90
20200;DHT22;36284;37.236;-121.934;2023-07-08T00:35:40;22.60;99.90
20200;DHT22;36284;37.236;-121.934;2023-07-08T00:43:48;22.40;99.90
20200;DHT22;36284;37.236;-121.934;2023-07-08T00:48:45;21.60;99.90
20200;DHT22;36284;37.236;-121.934;2023-07-08T00:51:13;22.40;99.90
20200;DHT22;36284;37.236;-121.934;2023-07-08T00:53:40;22.50;99.90
20200;DHT22;36284;37.236;-121.934;2023-07-08T00:56:35;22.20;99.90
20200;DHT22;36284;37.236;-121.934;2023-07-08T00:59:18;22.50;99.90
20200;DHT22;36284;37.236;-121.934;2023-07-08T01:01:46;22.40;99.90
20200;DHT22;36284;37.236;-121.934;2023-07-08T01:04:28;22.40;99.90
20200;DHT22;36284;37.236;-121.934;2023-07-08T01:06:59;21.70;99.90
20200;DHT22;36284;37.236;-121.934;2023-07-08T01:09:33;21.50;99.90
20200;DHT22;36284;37.236;-121.934;2023-07-08T01:12:04;21.80;99.90
20200;DHT22;36284;37.236;-121.934;2023-07-08T01:14:34;22.20;99.90
20200;DHT22;36284;37.236;-121.934;2023-07-08T01:17:02;21.90;99.90
20200;DHT22;36284;37.236;-121.934;2023-07-08T01:19:30;21.60;99.90
20200;DHT22;36284;37.236;-121.934;2023-07-08T01:22:05;21.40;99.90
20200;DHT22;36284;37.236;-121.934;2023-07-08T01:24:34;21.40;99.90
20200;DHT22;36284;37.236;-121.934;2023-07-08T01:27:05;21.20;99.90
20200;DHT22;36284;37.236;-121.934;2023-07-08T01:29:33;21.20;99.90
20200;DHT22;36284;37.236;-121.934;2023-07-08T01:32:00;21.40;99.90
20200;DHT22;36284;37.236;-121.934;2023-07-08T01:34:33;21.40;99.90
20200;DHT22;36284;37.236;-121.934;2023-07-08T01:37:02;21.00;99.90
20200;DHT22;36284;37.236;-121.934;2023-07-08T01:39:31;20.70;99.90
20200;DHT22;36284;37.236;-121.934;2023-07-08T01:41:59;20.80;99.90
20200;DHT22;36284;37.236;-121.934;2023-07-08T01:44:34;21.00;99.90
20200;DHT22;36284;37.236;-121.934;2023-07-08T01:47:19;20.80;99.90
20200;DHT22;36284;37.236;-121.934;2023-07-08T01:49:47;21.10;99.90
20200;DHT22;36284;37.236;-121.934;2023-07-08T01:52:17;20.80;99.90
20200;DHT22;36284;37.236;-121.934;2023-07-08T01:54:44;20.70;99.90
20200;DHT22;36284;37.236;-121.934;2023-07-08T01:57:11;20.70;99.90
20200;DHT22;36284;37.236;-121.934;2023-07-08T01:59:38;20.60;99.90
20200;DHT22;36284;37.236;-121.934;2023-07-08T02:02:05;20.50;99.90
20200;DHT22;36284;37.236;-121.934;2023-07-08T02:04:32;20.60;99.90
20200;DHT22;36284;37.236;-121.934;2023-07-08T02:06:59;20.60;99.90
20200;DHT22;36284;37.236;-121.934;2023-07-08T02:09:26;20.40;99.90
20200;DHT22;36284;37.236;-121.934;2023-07-08T02:11:54;20.50;99.90
20200;DHT22;36284;37.236;-121.934;2023-07-08T02:14:21;20.50;99.90
20200;DHT22;36284;37.236;-121.934;2023-07-08T02:16:48;20.40;99.90
20200;DHT22;36284;37.236;-121.934;2023-07-08T02:19:16;20.20;99.90
20200;DHT22;36284;37.236;-121.934;2023-07-08T02:21:43;20.10;99.90
20200;DHT22;36284;37.236;-121.934;2023-07-08T02:24:09;20.20;99.90
20200;DHT22;36284;37.236;-121.934;2023-07-08T02:26:36;19.90;99.90
20200;DHT22;36284;37.236;-121.934;2023-07-08T02:29:04;19.90;99.90
20200;DHT22;36284;37.236;-121.934;2023-07-08T02:31:30;19.70;99.90
20200;DHT22;36284;37.236;-121.934;2023-07-08T02:33:58;19.80;99.90
20200;DHT22;36284;37.236;-121.934;2023-07-08T02:36:24;19.70;99.90
20200;DHT22;36284;37.236;-121.934;2023-07-08T02:38:52;19.50;99.90
20200;DHT22;36284;37.236;-121.934;2023-07-08T02:41:19;19.40;99.90
20200;DHT22;36284;37.236;-121.934;2023-07-08T02:43:46;19.30;99.90
20200;DHT22;36284;37.236;-121.934;2023-07-08T02:46:13;19.30;99.90
20200;DHT22;36284;37.236;-121.934;2023-07-08T02:48:40;19.30;99.90
20200;DHT22;36284;37.236;-121.934;2023-07-08T02:51:07;19.10;99.90
20200;DHT22;36284;37.236;-121.934;2023-07-08T02:56:02;18.70;99.90
20200;DHT22;36284;37.236;-121.934;2023-07-08T02:58:30;18.60;99.90
20200;DHT22;36284;37.236;-121.934;2023-07-08T03:00:57;18.60;99.90
20200;DHT22;36284;37.236;-121.934;2023-07-08T03:03:28;18.40;99.90
20200;DHT22;36284;37.236;-121.934;2023-07-08T03:06:03;18.40;99.90
20200;DHT22;36284;37.236;-121.934;2023-07-08T03:08:31;18.30;99.90
20200;DHT22;36284;37.236;-121.934;2023-07-08T03:11:01;18.10;99.90
20200;DHT22;36284;37.236;-121.934;2023-07-08T03:13:29;18.00;99.90
20200;DHT22;36284;37.236;-121.934;2023-07-08T03:15:58;17.90;99.90
20200;DHT22;36284;37.236;-121.934;2023-07-08T03:18:28;17.70;99.90
20200;DHT22;36284;37.236;-121.934;2023-07-08T03:20:57;17.60;99.90
20200;DHT22;36284;37.236;-121.934;2023-07-08T03:23:25;17.40;99.90
20200;DHT22;36284;37.236;-121.934;2023-07-08T03:25:52;17.40;99.90
20200;DHT22;36284;37.236;-121.934;2023-07-08T03:28:19;17.40;99.90
20200;DHT22;36284;37.236;-121.934;2023-07-08T03:30:52;17.30;99.90
20200;DHT22;36284;37.236;-121.934;2023-07-08T03:33:19;17.30;99.90
20200;DHT22;36284;37.236;-121.934;2023-07-08T03:35:46;17.20;99.90
20200;DHT22;36284;37.236;-121.934;2023-07-08T03:38:13;17.20;99.90
20200;DHT22;36284;37.236;-121.934;2023-07-08T03:40:40;17.00;99.90
20200;DHT22;36284;37.236;-121.934;2023-07-08T03:43:07;16.90;99.90
20200;DHT22;36284;37.236;-121.934;2023-07-08T03:45:34;17.00;99.90
20200;DHT22;36284;37.236;-121.934;2023-07-08T03:48:01;17.00;99.90
20200;DHT22;36284;37.236;-121.934;2023-07-08T03:50:28;16.80;99.90
20200;DHT22;36284;37.236;-121.934;2023-07-08T03:52:56;16.80;99.90
20200;DHT22;36284;37.236;-121.934;2023-07-08T03:55:23;16.70;99.90
20200;DHT22;36284;37.236;-121.934;2023-07-08T03:57:50;16.70;99.90
20200;DHT22;36284;37.236;-121.934;2023-07-08T04:00:17;16.70;99.90
20200;DHT22;36284;37.236;-121.934;2023-07-08T04:05:16;16.30;99.90
20200;DHT22;36284;37.236;-121.934;2023-07-08T04:07:44;16.30;99.90
20200;DHT22;36284;37.236;-121.934;2023-07-08T04:10:12;16.30;99.90
20200;DHT22;36284;37.236;-121.934;2023-07-08T04:12:39;16.20;99.90
20200;DHT22;36284;37.236;-121.934;2023-07-08T04:15:10;16.20;99.90
20200;DHT22;36284;37.236;-121.934;2023-07-08T04:17:43;16.10;99.90
20200;DHT22;36284;37.236;-121.934;2023-07-08T04:20:14;16.00;99.90
20200;DHT22;36284;37.236;-121.934;2023-07-08T04:22:41;15.90;99.90
20200;DHT22;36284;37.236;-121.934;2023-07-08T04:25:08;15.90;99.90
20200;DHT22;36284;37.236;-121.934;2023-07-08T04:27:37;15.80;99.90
20200;DHT22;36284;37.236;-121.934;2023-07-08T04:30:05;15.80;99.90
20200;DHT22;36284;37.236;-121.934;2023-07-08T04:32:32;15.80;99.90
20200;DHT22;36284;37.236;-121.934;2023-07-08T04:34:59;15.70;99.90
20200;DHT22;36284;37.236;-121.934;2023-07-08T04:37:26;15.70;99.90
20200;DHT22;36284;37.236;-121.934;2023-07-08T04:39:53;15.60;99.90
20200;DHT22;36284;37.236;-121.934;2023-07-08T04:42:20;15.50;99.90
20200;DHT22;36284;37.236;-121.934;2023-07-08T04:44:47;15.50;99.90
20200;DHT22;36284;37.236;-121.934;2023-07-08T04:47:15;15.40;99.90
20200;DHT22;36284;37.236;-121.934;2023-07-08T04:49:42;15.30;99.90
20200;DHT22;36284;37.236;-121.934;2023-07-08T04:52:10;15.20;99.90
20200;DHT22;36284;37.236;-121.934;2023-07-08T04:54:37;15.10;99.90
20200;DHT22;36284;37.236;-121.934;2023-07-08T04:57:04;15.20;99.90
20200;DHT22;36284;37.236;-121.934;2023-07-08T04:59:31;15.10;99.90
20200;DHT22;36284;37.236;-121.934;2023-07-08T05:02:01;15.10;99.90
20200;DHT22;36284;37.236;-121.934;2023-07-08T05:04:28;15.20;99.90
20200;DHT22;36284;37.236;-121.934;2023-07-08T05:06:55;14.90;99.90
20200;DHT22;36284;37.236;-121.934;2023-07-08T05:09:22;14.90;99.90
20200;DHT22;36284;37.236;-121.934;2023-07-08T05:11:52;15.00;99.90
20200;DHT22;36284;37.236;-121.934;2023-07-08T05:14:19;14.90;99.90
20200;DHT22;36284;37.236;-121.934;2023-07-08T05:16:46;14.90;99.90
20200;DHT22;36284;37.236;-121.934;2023-07-08T05:19:14;14.70;99.90
20200;DHT22;36284;37.236;-121.934;2023-07-08T05:21:41;14.50;99.90
20200;DHT22;36284;37.236;-121.934;2023-07-08T05:24:09;14.40;99.90
20200;DHT22;36284;37.236;-121.934;2023-07-08T05:26:36;14.40;99.90
20200;DHT22;36284;37.236;-121.934;2023-07-08T05:29:03;14.30;99.90
20200;DHT22;36284;37.236;-121.934;2023-07-08T05:31:32;14.30;99.90
20200;DHT22;36284;37.236;-121.934;2023-07-08T05:34:00;14.20;99.90
20200;DHT22;36284;37.236;-121.934;2023-07-08T05:36:27;14.10;99.90
20200;DHT22;36284;37.236;-121.934;2023-07-08T05:38:54;14.10;99.90
20200;DHT22;36284;37.236;-121.934;2023-07-08T05:41:20;14.00;99.90
20200;DHT22;36284;37.236;-121.934;2023-07-08T05:43:47;13.90;99.90
20200;DHT22;36284;37.236;-121.934;2023-07-08T05:46:14;13.80;99.90
20200;DHT22;36284;37.236;-121.934;2023-07-08T05:48:41;13.80;99.90
20200;DHT22;36284;37.236;-121.934;2023-07-08T05:51:08;13.90;99.90
20200;DHT22;36284;37.236;-121.934;2023-07-08T05:53:35;13.80;99.90
20200;DHT22;36284;37.236;-121.934;2023-07-08T05:56:03;13.80;99.90
20200;DHT22;36284;37.236;-121.934;2023-07-08T05:58:30;13.70;99.90
20200;DHT22;36284;37.236;-121.934;2023-07-08T06:00:58;13.70;99.90
20200;DHT22;36284;37.236;-121.934;2023-07-08T06:03:25;13.70;99.90
20200;DHT22;36284;37.236;-121.934;2023-07-08T06:05:53;13.70;99.90
20200;DHT22;36284;37.236;-121.934;2023-07-08T06:08:21;13.60;99.90
20200;DHT22;36284;37.236;-121.934;2023-07-08T06:10:49;13.50;99.90
20200;DHT22;36284;37.236;-121.934;2023-07-08T06:13:17;13.40;99.90
20200;DHT22;36284;37.236;-121.934;2023-07-08T06:15:44;13.30;99.90
20200;DHT22;36284;37.236;-121.934;2023-07-08T06:18:11;13.30;99.90
20200;DHT22;36284;37.236;-121.934;2023-07-08T06:20:38;13.30;99.90
20200;DHT22;36284;37.236;-121.934;2023-07-08T06:23:05;13.20;99.90
20200;DHT22;36284;37.236;-121.934;2023-07-08T06:25:32;13.30;99.90
20200;DHT22;36284;37.236;-121.934;2023-07-08T06:27:59;13.30;99.90
20200;DHT22;36284;37.236;-121.934;2023-07-08T06:30:26;13.30;99.90
20200;DHT22;36284;37.236;-121.934;2023-07-08T06:32:53;13.10;99.90
20200;DHT22;36284;37.236;-121.934;2023-07-08T06:35:20;13.10;99.90
20200;DHT22;36284;37.236;-121.934;2023-07-08T06:37:47;13.00;99.90
20200;DHT22;36284;37.236;-121.934;2023-07-08T06:40:14;13.00;99.90
20200;DHT22;36284;37.236;-121.934;2023-07-08T06:42:41;13.00;99.90
20200;DHT22;36284;37.236;-121.934;2023-07-08T06:45:08;12.90;99.90
20200;DHT22;36284;37.236;-121.934;2023-07-08T06:47:35;12.80;99.90
20200;DHT22;36284;37.236;-121.934;2023-07-08T06:50:02;12.80;99.90
20200;DHT22;36284;37.236;-121.934;2023-07-08T06:52:29;12.80;99.90
20200;DHT22;36284;37.236;-121.934;2023-07-08T06:55:03;12.70;99.90
20200;DHT22;36284;37.236;-121.934;2023-07-08T06:57:30;12.80;99.90
20200;DHT22;36284;37.236;-121.934;2023-07-08T06:59:57;12.70;99.90
20200;DHT22;36284;37.236;-121.934;2023-07-08T07:02:24;12.70;99.90
20200;DHT22;36284;37.236;-121.934;2023-07-08T07:04:51;12.70;99.90
20200;DHT22;36284;37.236;-121.934;2023-07-08T07:07:18;12.60;99.90
20200;DHT22;36284;37.236;-121.934;2023-07-08T07:09:45;12.70;99.90
20200;DHT22;36284;37.236;-121.934;2023-07-08T07:12:12;12.70;99.90
20200;DHT22;36284;37.236;-121.934;2023-07-08T07:14:39;12.60;99.90
20200;DHT22;36284;37.236;-121.934;2023-07-08T07:17:06;12.70;99.90
20200;DHT22;36284;37.236;-121.934;2023-07-08T07:19:33;12.80;99.90
20200;DHT22;36284;37.236;-121.934;2023-07-08T07:22:00;12.90;99.90
20200;DHT22;36284;37.236;-121.934;2023-07-08T07:24:26;12.90;99.90
20200;DHT22;36284;37.236;-121.934;2023-07-08T07:26:53;12.90;99.90
20200;DHT22;36284;37.236;-121.934;2023-07-08T07:29:22;12.70;99.90
20200;DHT22;36284;37.236;-121.934;2023-07-08T07:31:50;12.50;99.90
20200;DHT22;36284;37.236;-121.934;2023-07-08T07:34:18;12.50;99.90
20200;DHT22;36284;37.236;-121.934;2023-07-08T07:36:45;12.50;99.90
20200;DHT22;36284;37.236;-121.934;2023-07-08T07:39:12;12.60;99.90
20200;DHT22;36284;37.236;-121.934;2023-07-08T07:41:39;12.70;99.90
20200;DHT22;36284;37.236;-121.934;2023-07-08T07:44:06;12.70;99.90
20200;DHT22;36284;37.236;-121.934;2023-07-08T07:46:33;12.70;99.90
20200;DHT22;36284;37.236;-121.934;2023-07-08T07:49:00;12.60;99.90
20200;DHT22;36284;37.236;-121.934;2023-07-08T07:51:26;12.60;99.90
20200;DHT22;36284;37.236;-121.934;2023-07-08T07:53:53;12.60;99.90
20200;DHT22;36284;37.236;-121.934;2023-07-08T07:56:20;12.50;99.90
20200;DHT22;36284;37.236;-121.934;2023-07-08T07:58:48;12.30;99.90
20200;DHT22;36284;37.236;-121.934;2023-07-08T08:01:14;12.40;99.90
20200;DHT22;36284;37.236;-121.934;2023-07-08T08:03:42;12.20;99.90
20200;DHT22;36284;37.236;-121.934;2023-07-08T08:06:09;12.10;99.90
20200;DHT22;36284;37.236;-121.934;2023-07-08T08:08:36;12.20;99.90
20200;DHT22;36284;37.236;-121.934;2023-07-08T08:11:03;12.20;99.90
20200;DHT22;36284;37.236;-121.934;2023-07-08T08:13:30;12.10;99.90
20200;DHT22;36284;37.236;-121.934;2023-07-08T08:15:58;12.00;99.90
20200;DHT22;36284;37.236;-121.934;2023-07-08T08:18:25;11.80;99.90
20200;DHT22;36284;37.236;-121.934;2023-07-08T08:20:52;12.00;99.90
20200;DHT22;36284;37.236;-121.934;2023-07-08T08:23:19;12.00;99.90
20200;DHT22;36284;37.236;-121.934;2023-07-08T08:25:46;11.80;99.90
20200;DHT22;36284;37.236;-121.934;2023-07-08T08:28:12;11.80;99.90
20200;DHT22;36284;37.236;-121.934;2023-07-08T08:30:39;11.90;99.90
20200;DHT22;36284;37.236;-121.934;2023-07-08T08:33:06;11.90;99.90
20200;DHT22;36284;37.236;-121.934;2023-07-08T08:35:33;11.90;99.90
20200;DHT22;36284;37.236;-121.934;2023-07-08T08:38:00;11.80;99.90
20200;DHT22;36284;37.236;-121.934;2023-07-08T08:40:30;11.80;99.90
20200;DHT22;36284;37.236;-121.934;2023-07-08T08:43:14;12.00;99.90
20200;DHT22;36284;37.236;-121.934;2023-07-08T08:45:55;12.00;99.90
20200;DHT22;36284;37.236;-121.934;2023-07-08T08:48:25;12.00;99.90
20200;DHT22;36284;37.236;-121.934;2023-07-08T08:51:01;12.00;99.90
20200;DHT22;36284;37.236;-121.934;2023-07-08T08:53:29;12.10;99.90
20200;DHT22;36284;37.236;-121.934;2023-07-08T08:56:23;12.00;99.90
20200;DHT22;36284;37.236;-121.934;2023-07-08T09:01:17;11.70;99.90
20200;DHT22;36284;37.236;-121.934;2023-07-08T09:06:32;11.80;99.90
20200;DHT22;36284;37.236;-121.934;2023-07-08T09:14:29;11.50;99.90
20200;DHT22;36284;37.236;-121.934;2023-07-08T09:17:29;11.60;99.90
20200;DHT22;36284;37.236;-121.934;2023-07-08T09:20:23;11.60;99.90
20200;DHT22;36284;37.236;-121.934;2023-07-08T09:23:04;11.40;99.90
20200;DHT22;36284;37.236;-121.934;2023-07-08T09:25:59;11.30;99.90
20200;DHT22;36284;37.236;-121.934;2023-07-08T09:28:40;11.50;99.90
20200;DHT22;36284;37.236;-121.934;2023-07-08T09:31:20;11.60;99.90
20200;DHT22;36284;37.236;-121.934;2023-07-08T09:33:51;11.50;99.90
20200;DHT22;36284;37.236;-121.934;2023-07-08T09:36:23;11.40;99.90
20200;DHT22;36284;37.236;-121.934;2023-07-08T09:38:51;11.30;99.90
20200;DHT22;36284;37.236;-121.934;2023-07-08T09:41:34;11.20;99.90
20200;DHT22;36284;37.236;-121.934;2023-07-08T09:44:28;11.20;99.90
20200;DHT22;36284;37.236;-121.934;2023-07-08T09:46:57;11.20;99.90
20200;DHT22;36284;37.236;-121.934;2023-07-08T09:49:35;11.30;99.90
20200;DHT22;36284;37.236;-121.934;2023-07-08T09:52:03;11.30;99.90
20200;DHT22;36284;37.236;-121.934;2023-07-08T09:54:31;11.30;99.90
20200;DHT22;36284;37.236;-121.934;2023-07-08T09:57:28;11.30;99.90
20200;DHT22;36284;37.236;-121.934;2023-07-08T09:59:58;11.20;99.90
20200;DHT22;36284;37.236;-121.934;2023-07-08T10:02:46;11.10;99.90
20200;DHT22;36284;37.236;-121.934;2023-07-08T10:05:21;11.10;99.90
20200;DHT22;36284;37.236;-121.934;2023-07-08T10:07:52;11.10;99.90
20200;DHT22;36284;37.236;-121.934;2023-07-08T10:10:28;11.00;99.90
20200;DHT22;36284;37.236;-121.934;2023-07-08T10:12:59;11.10;99.90
20200;DHT22;36284;37.236;-121.934;2023-07-08T10:15:57;11.10;99.90
20200;DHT22;36284;37.236;-121.934;2023-07-08T10:18:30;11.00;99.90
20200;DHT22;36284;37.236;-121.934;2023-07-08T10:27:22;11.00;99.90
20200;DHT22;36284;37.236;-121.934;2023-07-08T10:29:48;10.90;99.90
20200;DHT22;36284;37.236;-121.934;2023-07-08T10:32:27;11.00;99.90
20200;DHT22;36284;37.236;-121.934;2023-07-08T10:35:17;11.10;99.90
20200;DHT22;36284;37.236;-121.934;2023-07-08T10:43:43;11.10;99.90
20200;DHT22;36284;37.236;-121.934;2023-07-08T10:48:56;11.00;99.90
20200;DHT22;36284;37.236;-121.934;2023-07-08T10:57:26;10.90;99.90
20200;DHT22;36284;37.236;-121.934;2023-07-08T11:03:04;10.70;99.90
20200;DHT22;36284;37.236;-121.934;2023-07-08T11:05:41;10.80;99.90
20200;DHT22;36284;37.236;-121.934;2023-07-08T11:08:24;10.80;99.90
20200;DHT22;36284;37.236;-121.934;2023-07-08T11:13:28;10.80;99.90
20200;DHT22;36284;37.236;-121.934;2023-07-08T11:16:07;10.80;99.90
20200;DHT22;36284;37.236;-121.934;2023-07-08T11:21:42;11.00;99.90
20200;DHT22;36284;37.236;-121.934;2023-07-08T11:24:38;11.00;99.90
20200;DHT22;36284;37.236;-121.934;2023-07-08T11:27:25;10.70;99.90
20200;DHT22;36284;37.236;-121.934;2023-07-08T11:29:58;10.80;99.90
20200;DHT22;36284;37.236;-121.934;2023-07-08T11:32:28;10.90;99.90
20200;DHT22;36284;37.236;-121.934;2023-07-08T11:34:57;10.70;99.90
20200;DHT22;36284;37.236;-121.934;2023-07-08T11:37:26;10.70;99.90
20200;DHT22;36284;37.236;-121.934;2023-07-08T11:39:57;10.60;99.90
20200;DHT22;36284;37.236;-121.934;2023-07-08T11:42:47;10.60;99.90
20200;DHT22;36284;37.236;-121.934;2023-07-08T11:47:45;10.70;99.90
20200;DHT22;36284;37.236;-121.934;2023-07-08T11:50:35;10.60;99.90
20200;DHT22;36284;37.236;-121.934;2023-07-08T11:53:08;10.70;99.90
20200;DHT22;36284;37.236;-121.934;2023-07-08T11:55:47;10.60;99.90
20200;DHT22;36284;37.236;-121.934;2023-07-08T11:58:26;10.80;99.90
20200;DHT22;36284;37.236;-121.934;2023-07-08T12:01:24;10.70;99.90
20200;DHT22;36284;37.236;-121.934;2023-07-08T12:04:16;10.80;99.90
20200;DHT22;36284;37.236;-121.934;2023-07-08T12:06:48;10.80;99.90
20200;DHT22;36284;37.236;-121.934;2023-07-08T12:09:21;10.80;99.90
20200;DHT22;36284;37.236;-121.934;2023-07-08T12:12:03;10.60;99.90
20200;DHT22;36284;37.236;-121.934;2023-07-08T12:14:31;10.70;99.90
20200;DHT22;36284;37.236;-121.934;2023-07-08T12:16:59;10.70;99.90
20200;DHT22;36284;37.236;-121.934;2023-07-08T12:19:27;10.70;99.90
20200;DHT22;36284;37.236;-121.934;2023-07-08T12:21:58;10.50;99.90
20200;DHT22;36284;37.236;-121.934;2023-07-08T12:24:25;10.40;99.90
20200;DHT22;36284;37.236;-121.934;2023-07-08T12:26:53;10.60;99.90
20200;DHT22;36284;37.236;-121.934;2023-07-08T12:29:21;10.60;99.90
20200;DHT22;36284;37.236;-121.934;2023-07-08T12:31:48;10.60;99.90
20200;DHT22;36284;37.236;-121.934;2023-07-08T12:34:17;10.70;99.90
20200;DHT22;36284;37.236;-121.934;2023-07-08T12:36:45;10.60;99.90
20200;DHT22;36284;37.236;-121.934;2023-07-08T12:39:17;10.70;99.90
20200;DHT22;36284;37.236;-121.934;2023-07-08T12:41:45;10.70;99.90
20200;DHT22;36284;37.236;-121.934;2023-07-08T12:44:21;10.60;99.90
20200;DHT22;36284;37.236;-121.934;2023-07-08T12:46:49;10.80;99.90
20200;DHT22;36284;37.236;-121.934;2023-07-08T12:49:20;10.90;99.90
20200;DHT22;36284;37.236;-121.934;2023-07-08T12:51:48;10.80;99.90
20200;DHT22;36284;37.236;-121.934;2023-07-08T12:54:15;10.80;99.90
20200;DHT22;36284;37.236;-121.934;2023-07-08T12:56:45;10.80;99.90
20200;DHT22;36284;37.236;-121.934;2023-07-08T12:59:22;10.80;99.90
20200;DHT22;36284;37.236;-121.934;2023-07-08T13:01:50;10.80;99.90
20200;DHT22;36284;37.236;-121.934;2023-07-08T13:04:19;10.80;99.90
20200;DHT22;36284;37.236;-121.934;2023-07-08T13:06:47;10.90;99.90
20200;DHT22;36284;37.236;-121.934;2023-07-08T13:09:20;10.90;99.90
20200;DHT22;36284;37.236;-121.934;2023-07-08T13:11:48;11.00;99.90
20200;DHT22;36284;37.236;-121.934;2023-07-08T13:14:19;11.10;99.90
20200;DHT22;36284;37.236;-121.934;2023-07-08T13:16:47;11.00;99.90
20200;DHT22;36284;37.236;-121.934;2023-07-08T13:19:15;11.20;99.90
20200;DHT22;36284;37.236;-121.934;2023-07-08T13:21:42;11.20;99.90
20200;DHT22;36284;37.236;-121.934;2023-07-08T13:24:10;11.20;99.90
20200;DHT22;36284;37.236;-121.934;2023-07-08T13:26:38;11.50;99.90
20200;DHT22;36284;37.236;-121.934;2023-07-08T13:29:11;11.70;99.90
20200;DHT22;36284;37.236;-121.934;2023-07-08T13:31:39;11.70;99.90
20200;DHT22;36284;37.236;-121.934;2023-07-08T13:34:19;11.70;99.90
20200;DHT22;36284;37.236;-121.934;2023-07-08T13:36:50;11.70;99.90
20200;DHT22;36284;37.236;-121.934;2023-07-08T13:39:27;11.90;99.90
20200;DHT22;36284;37.236;-121.934;2023-07-08T13:41:56;11.90;99.90
20200;DHT22;36284;37.236;-121.934;2023-07-08T13:44:23;11.90;99.90
20200;DHT22;36284;37.236;-121.934;2023-07-08T13:49:24;11.90;99.90
20200;DHT22;36284;37.236;-121.934;2023-07-08T13:52:18;12.10;99.90
20200;DHT22;36284;37.236;-121.934;2023-07-08T13:54:50;12.50;99.90
20200;DHT22;36284;37.236;-121.934;2023-07-08T13:57:22;12.50;99.90
20200;DHT22;36284;37.236;-121.934;2023-07-08T13:59:50;12.60;99.90
20200;DHT22;36284;37.236;-121.934;2023-07-08T14:02:29;12.70;99.90
20200;DHT22;36284;37.236;-121.934;2023-07-08T14:04:58;12.80;99.90
20200;DHT22;36284;37.236;-121.934;2023-07-08T14:07:28;12.90;99.90
20200;DHT22;36284;37.236;-121.934;2023-07-08T14:09:56;13.00;99.90
20200;DHT22;36284;37.236;-121.934;2023-07-08T14:12:23;13.00;99.90
20200;DHT22;36284;37.236;-121.934;2023-07-08T14:14:50;13.00;99.90
20200;DHT22;36284;37.236;-121.934;2023-07-08T14:17:22;13.10;99.90
20200;DHT22;36284;37.236;-121.934;2023-07-08T14:19:50;13.20;99.90
20200;DHT22;36284;37.236;-121.934;2023-07-08T14:22:28;13.70;99.90
20200;DHT22;36284;37.236;-121.934;2023-07-08T14:24:56;14.70;99.90
20200;DHT22;36284;37.236;-121.934;2023-07-08T14:27:25;15.00;99.90
20200;DHT22;36284;37.236;-121.934;2023-07-08T14:29:51;15.50;99.90
20200;DHT22;36284;37.236;-121.934;2023-07-08T14:32:26;17.00;99.90
20200;DHT22;36284;37.236;-121.934;2023-07-08T14:35:17;17.00;99.90
20200;DHT22;36284;37.236;-121.934;2023-07-08T14:37:46;17.90;99.90
20200;DHT22;36284;37.236;-121.934;2023-07-08T14:43:17;19.60;99.90
20200;DHT22;36284;37.236;-121.934;2023-07-08T14:45:50;19.80;99.90
20200;DHT22;36284;37.236;-121.934;2023-07-08T14:48:18;20.80;99.90
20200;DHT22;36284;37.236;-121.934;2023-07-08T14:50:45;20.60;99.90
20200;DHT22;36284;37.236;-121.934;2023-07-08T14:53:17;20.90;99.90
20200;DHT22;36284;37.236;-121.934;2023-07-08T14:55:46;21.10;99.90
20200;DHT22;36284;37.236;-121.934;2023-07-08T14:58:31;22.20;99.90
20200;DHT22;36284;37.236;-121.934;2023-07-08T15:01:11;22.00;99.90
20200;DHT22;36284;37.236;-121.934;2023-07-08T15:03:40;20.90;99.90
20200;DHT22;36284;37.236;-121.934;2023-07-08T15:06:11;20.70;99.90
20200;DHT22;36284;37.236;-121.934;2023-07-08T15:08:38;20.90;99.90
20200;DHT22;36284;37.236;-121.934;2023-07-08T15:11:05;20.50;99.90
20200;DHT22;36284;37.236;-121.934;2023-07-08T15:13:33;19.60;99.90
20200;DHT22;36284;37.236;-121.934;2023-07-08T15:16:01;20.30;99.90
20200;DHT22;36284;37.236;-121.934;2023-07-08T15:18:29;19.60;99.90
20200;DHT22;36284;37.236;-121.934;2023-07-08T15:20:56;19.40;99.90
20200;DHT22;36284;37.236;-121.934;2023-07-08T15:23:23;20.60;99.90
20200;DHT22;36284;37.236;-121.934;2023-07-08T15:25:50;19.60;99.90
20200;DHT22;36284;37.236;-121.934;2023-07-08T15:28:51;19.80;99.90
20200;DHT22;36284;37.236;-121.934;2023-07-08T15:31:20;20.40;99.90
20200;DHT22;36284;37.236;-121.934;2023-07-08T15:33:47;20.50;99.90
20200;DHT22;36284;37.236;-121.934;2023-07-08T15:36:14;20.70;99.90
20200;DHT22;36284;37.236;-121.934;2023-07-08T15:38:42;20.80;99.90
20200;DHT22;36284;37.236;-121.934;2023-07-08T15:41:24;20.10;99.90
20200;DHT22;36284;37.236;-121.934;2023-07-08T15:43:55;20.50;99.90
20200;DHT22;36284;37.236;-121.934;2023-07-08T15:46:26;21.20;99.90
20200;DHT22;36284;37.236;-121.934;2023-07-08T15:48:55;20.40;99.90
20200;DHT22;36284;37.236;-121.934;2023-07-08T15:51:22;20.60;99.90
20200;DHT22;36284;37.236;-121.934;2023-07-08T15:53:49;21.00;99.90
20200;DHT22;36284;37.236;-121.934;2023-07-08T15:56:19;20.70;99.90
20200;DHT22;36284;37.236;-121.934;2023-07-08T15:58:47;20.70;99.90
20200;DHT22;36284;37.236;-121.934;2023-07-08T16:01:23;21.20;99.90
20200;DHT22;36284;37.236;-121.934;2023-07-08T16:03:50;21.20;99.90
20200;DHT22;36284;37.236;-121.934;2023-07-08T16:06:18;21.80;99.90
20200;DHT22;36284;37.236;-121.934;2023-07-08T16:08:46;20.70;99.90